createdAt,value
2023-12-15T00:00:22.808Z,6.25
2023-12-15T00:05:26.464Z,6.31
2023-12-15T00:10:32.800Z,6.32
2023-12-15T00:15:36.099Z,6.29
2023-12-15T00:20:39.386Z,6.29
2023-12-15T00:25:44.198Z,6.27
2023-12-15T00:30:47.321Z,6.27
2023-12-15T00:35:51.183Z,6.19
2023-12-15T00:40:55.851Z,6.18
2023-12-15T00:45:59.105Z,6.15
2023-12-15T00:51:02.329Z,6.16
2023-12-15T00:56:08.611Z,6.14
2023-12-15T01:01:11.848Z,6.16
2023-12-15T01:06:15.454Z,6.15
2023-12-15T01:11:20.165Z,6.15
2023-12-15T01:16:24.584Z,6.21
2023-12-15T01:21:31.299Z,6.21
2023-12-15T01:26:36.141Z,6.27
2023-12-15T01:31:49.827Z,6.28
2023-12-15T01:36:57.484Z,6.30
2023-12-15T01:42:03.833Z,6.28
2023-12-15T01:47:10.390Z,6.21
2023-12-15T01:52:13.677Z,6.14
2023-12-15T01:57:18.741Z,6.16
2023-12-15T02:02:27.042Z,5.99
2023-12-15T02:07:30.766Z,5.95
2023-12-15T02:12:35.518Z,6.07
2023-12-15T02:17:39.481Z,5.99
2023-12-15T02:22:44.582Z,5.89
2023-12-15T02:27:47.904Z,5.70
2023-12-15T02:32:51.651Z,5.52
2023-12-15T02:38:01.994Z,5.38
2023-12-15T02:43:05.206Z,5.26
2023-12-15T02:48:08.494Z,5.13
2023-12-15T02:53:13.257Z,5.05
2023-12-15T02:58:16.511Z,4.94
2023-12-15T03:03:19.808Z,4.85
2023-12-15T03:08:26.013Z,4.76
2023-12-15T03:13:30.094Z,4.68
2023-12-15T03:18:33.585Z,4.61
2023-12-15T03:23:38.749Z,4.52
2023-12-15T03:28:42.212Z,4.46
2023-12-15T03:33:45.474Z,4.48
2023-12-15T03:38:49.954Z,4.50
2023-12-15T03:43:53.270Z,4.38
2023-12-15T03:48:56.763Z,4.29
2023-12-15T03:54:01.378Z,4.19
2023-12-15T03:59:04.790Z,4.14
2023-12-15T04:04:08.051Z,4.07
2023-12-15T04:09:12.813Z,4.01
2023-12-15T04:14:15.917Z,3.96
2023-12-15T04:19:19.188Z,3.93
2023-12-15T04:24:23.975Z,3.90
2023-12-15T04:29:27.330Z,3.95
2023-12-15T04:34:30.786Z,3.96
2023-12-15T04:39:35.521Z,3.88
2023-12-15T04:44:39.609Z,3.80
2023-12-15T04:49:43.044Z,3.75
2023-12-15T04:54:48.913Z,3.67
2023-12-15T04:59:52.405Z,3.60
2023-12-15T05:04:56.129Z,3.58
2023-12-15T05:10:00.728Z,3.54
2023-12-15T05:15:04.325Z,3.49
2023-12-15T05:20:09.321Z,3.45
2023-12-15T05:25:15.450Z,3.43
2023-12-15T05:30:18.657Z,3.40
2023-12-15T05:35:22.005Z,3.37
2023-12-15T05:40:26.572Z,3.37
2023-12-15T05:45:29.881Z,3.35
2023-12-15T05:50:35.985Z,3.34
2023-12-15T05:55:41.655Z,3.34
2023-12-15T06:00:44.843Z,3.32
2023-12-15T06:05:48.040Z,3.30
2023-12-15T06:10:53.081Z,3.25
2023-12-15T06:15:56.474Z,3.25
2023-12-15T06:20:59.588Z,3.24
2023-12-15T06:26:04.240Z,3.23
2023-12-15T06:31:08.289Z,3.21
2023-12-15T06:36:12.607Z,3.23
2023-12-15T06:41:17.094Z,3.23
2023-12-15T06:46:20.392Z,3.26
2023-12-15T06:51:23.775Z,3.28
2023-12-15T06:56:29.478Z,3.32
2023-12-15T07:01:32.800Z,3.36
2023-12-15T07:06:35.918Z,3.44
2023-12-15T07:11:41.469Z,3.57
2023-12-15T07:16:44.652Z,3.67
2023-12-15T07:21:48.224Z,3.72
2023-12-15T07:26:52.938Z,3.68
2023-12-15T07:31:56.126Z,3.71
2023-12-15T07:36:59.310Z,3.89
2023-12-15T07:42:03.787Z,4.06
2023-12-15T07:47:06.981Z,4.13
2023-12-15T07:52:10.261Z,4.21
2023-12-15T07:57:17.076Z,4.26
2023-12-15T08:02:22.272Z,4.31
2023-12-15T08:07:25.636Z,4.36
2023-12-15T08:12:30.386Z,4.40
2023-12-15T08:17:35.455Z,4.47
2023-12-15T08:22:39.066Z,4.54
2023-12-15T08:27:48.225Z,4.69
2023-12-15T08:32:51.472Z,4.80
2023-12-15T08:37:56.100Z,4.84
2023-12-15T08:43:00.664Z,4.93
2023-12-15T08:48:03.966Z,4.97
2023-12-15T08:53:07.250Z,5.06
2023-12-15T08:58:12.009Z,5.21
2023-12-15T09:03:15.627Z,5.31
2023-12-15T09:08:19.031Z,5.40
2023-12-15T09:13:23.723Z,5.50
2023-12-15T09:18:26.912Z,5.59
2023-12-15T09:23:30.083Z,5.69
2023-12-15T09:28:34.744Z,5.74
2023-12-15T09:33:38.051Z,5.84
2023-12-15T09:38:41.224Z,5.95
2023-12-15T09:43:45.950Z,6.02
2023-12-15T09:48:49.411Z,6.11
2023-12-15T09:53:53.642Z,6.21
2023-12-15T09:58:58.244Z,6.31
2023-12-15T10:04:01.437Z,6.31
2023-12-15T10:09:04.929Z,6.34
2023-12-15T10:14:09.759Z,6.33
2023-12-15T10:19:13.157Z,6.44
2023-12-15T10:24:21.626Z,6.48
2023-12-15T10:29:26.366Z,6.49
2023-12-15T10:34:30.049Z,6.44
2023-12-15T10:39:33.580Z,6.45
2023-12-15T10:44:39.118Z,6.44
2023-12-15T10:49:50.069Z,6.43
2023-12-15T10:54:57.657Z,6.48
2023-12-15T11:00:03.956Z,6.48
2023-12-15T11:05:11.262Z,6.53
2023-12-15T11:10:14.994Z,6.58
2023-12-15T11:15:20.761Z,6.56
2023-12-15T11:20:43.236Z,6.62
2023-12-15T11:26:01.986Z,6.60
2023-12-15T11:31:23.027Z,6.62
2023-12-15T11:36:29.979Z,6.64
2023-12-15T11:41:33.843Z,6.69
2023-12-15T11:46:38.484Z,6.72
2023-12-15T11:51:42.544Z,6.73
2023-12-15T11:56:48.319Z,6.77
2023-12-15T12:01:53.508Z,6.77
2023-12-15T12:06:58.676Z,6.79
2023-12-15T12:12:02.084Z,6.85
2023-12-15T12:17:11.393Z,6.91
2023-12-15T12:22:15.173Z,6.91
2023-12-15T12:27:19.662Z,6.95
2023-12-15T12:32:25.000Z,7.00
2023-12-15T12:37:28.239Z,7.06
2023-12-15T12:42:31.730Z,7.11
2023-12-15T12:47:39.144Z,7.24
2023-12-15T12:52:43.355Z,7.31
2023-12-15T12:57:48.860Z,7.38
2023-12-15T13:02:53.717Z,7.39
2023-12-15T13:07:57.944Z,7.41
2023-12-15T13:13:01.312Z,7.48
2023-12-15T13:18:07.968Z,7.54
2023-12-15T13:23:11.288Z,7.62
2023-12-15T13:28:14.777Z,7.70
2023-12-15T13:33:20.722Z,7.76
2023-12-15T13:38:24.450Z,7.85
2023-12-15T13:43:28.345Z,7.90
2023-12-15T13:48:33.697Z,7.94
2023-12-15T13:53:37.181Z,7.96
2023-12-15T13:58:40.611Z,7.97
2023-12-15T14:03:45.931Z,7.94
2023-12-15T14:08:49.679Z,7.96
2023-12-15T14:13:53.115Z,8.02
2023-12-15T14:18:57.990Z,7.98
2023-12-15T14:24:01.589Z,7.97
2023-12-15T14:29:05.234Z,7.97
2023-12-15T14:34:10.467Z,8.02
2023-12-15T14:39:13.760Z,7.98
2023-12-15T14:44:17.457Z,7.98
2023-12-15T14:49:22.116Z,7.99
2023-12-15T14:54:25.491Z,8.01
2023-12-15T14:59:28.704Z,8.02
2023-12-15T15:04:33.753Z,8.00
2023-12-15T15:09:36.994Z,7.96
2023-12-15T15:14:40.943Z,7.90
2023-12-15T15:19:45.595Z,7.88
2023-12-15T15:24:49.524Z,7.81
2023-12-15T15:29:52.953Z,7.77
2023-12-15T15:35:05.516Z,7.77
2023-12-15T15:40:12.304Z,7.77
2023-12-15T15:45:15.578Z,7.75
2023-12-15T15:50:20.236Z,7.74
2023-12-15T15:55:23.547Z,7.71
2023-12-15T16:00:26.869Z,7.69
2023-12-15T16:05:35.618Z,7.70
2023-12-15T16:10:44.905Z,7.67
2023-12-15T16:15:49.166Z,7.67
2023-12-15T16:20:54.228Z,7.69
2023-12-15T16:25:57.821Z,7.71
2023-12-15T16:31:01.396Z,7.67
2023-12-15T16:36:08.090Z,7.63
2023-12-15T16:41:11.655Z,7.60
2023-12-15T16:46:15.429Z,7.57
2023-12-15T16:51:20.319Z,7.57
2023-12-15T16:56:23.990Z,7.58
2023-12-15T17:01:28.302Z,7.63
2023-12-15T17:06:32.904Z,7.59
2023-12-15T17:11:36.367Z,7.62
2023-12-15T17:16:39.572Z,7.66
2023-12-15T17:21:45.556Z,7.63
2023-12-15T17:26:57.681Z,7.65
2023-12-15T17:32:01.162Z,7.71
2023-12-15T17:37:06.060Z,7.72
2023-12-15T17:42:10.762Z,7.72
2023-12-15T17:47:14.095Z,7.76
2023-12-15T17:52:19.656Z,7.80
2023-12-15T17:57:22.913Z,7.77
2023-12-15T18:02:27.487Z,7.69
2023-12-15T18:07:32.260Z,7.76
2023-12-15T18:12:35.517Z,7.79
2023-12-15T18:17:38.866Z,7.82
2023-12-15T18:22:43.910Z,7.86
2023-12-15T18:27:47.973Z,7.86
2023-12-15T18:32:51.425Z,7.85
2023-12-15T18:37:56.166Z,7.86
2023-12-15T18:42:59.455Z,7.86
2023-12-15T18:48:02.794Z,7.85
2023-12-15T18:53:07.737Z,7.89
2023-12-15T18:58:11.204Z,7.92
2023-12-15T19:03:14.605Z,7.89
2023-12-15T19:08:19.262Z,7.90
2023-12-15T19:13:23.637Z,7.95
2023-12-15T19:18:27.049Z,7.96
2023-12-15T19:23:31.594Z,7.96
2023-12-15T19:28:34.842Z,7.98
2023-12-15T19:33:40.593Z,8.00
2023-12-15T19:38:46.629Z,8.00
2023-12-15T19:43:50.247Z,7.99
2023-12-15T19:48:54.158Z,8.00
2023-12-15T19:54:05.118Z,7.99
2023-12-15T19:59:12.034Z,7.99
2023-12-15T20:04:16.126Z,8.00
2023-12-15T20:09:20.858Z,7.98
2023-12-15T20:14:24.267Z,7.97
2023-12-15T20:19:28.126Z,7.99
2023-12-15T20:24:32.682Z,7.99
2023-12-15T20:29:36.356Z,7.95
2023-12-15T20:34:39.763Z,7.95
2023-12-15T20:39:44.562Z,7.96
2023-12-15T20:44:48.318Z,7.94
2023-12-15T20:49:51.573Z,7.92
2023-12-15T20:54:56.216Z,7.92
2023-12-15T20:59:59.685Z,7.94
2023-12-15T21:05:02.966Z,7.95
2023-12-15T21:10:08.973Z,7.94
2023-12-15T21:15:12.436Z,7.95
2023-12-15T21:20:15.658Z,7.95
2023-12-15T21:25:20.449Z,7.89
2023-12-15T21:30:23.667Z,7.86
2023-12-15T21:35:29.249Z,7.90
2023-12-15T21:40:37.444Z,7.90
2023-12-15T21:45:41.060Z,7.89
2023-12-15T21:50:46.738Z,7.93
2023-12-15T21:55:51.288Z,7.93
2023-12-15T22:00:54.649Z,7.95
2023-12-15T22:05:59.671Z,7.95
2023-12-15T22:11:05.293Z,7.97
2023-12-15T22:16:09.677Z,7.99
2023-12-15T22:21:13.147Z,7.99
2023-12-15T22:26:17.932Z,7.94
2023-12-15T22:31:23.201Z,7.94
2023-12-15T22:36:26.376Z,7.90
2023-12-15T22:41:31.017Z,7.90
2023-12-15T22:46:41.820Z,7.93
2023-12-15T22:51:45.152Z,7.96
2023-12-15T22:56:49.940Z,7.97
2023-12-15T23:01:53.626Z,7.96
2023-12-15T23:06:57.241Z,7.97
2023-12-15T23:12:01.871Z,7.99
2023-12-15T23:17:05.319Z,8.04
2023-12-15T23:22:08.640Z,8.06
2023-12-15T23:27:13.725Z,8.06
2023-12-15T23:32:16.982Z,8.07
2023-12-15T23:37:20.608Z,8.11
2023-12-15T23:42:25.180Z,8.12
2023-12-15T23:47:28.658Z,8.12
2023-12-15T23:52:32.218Z,8.12
2023-12-15T23:57:37.047Z,8.07
